Time;durP1;ratioP1;P1;durP2;ratioP2;P2;SDS_P1;SDS_P2;PMS_P1;PMS_P2;Temp;Humidity;BMP_temperature;BMP_pressure;BME280_temperature;BME280_humidity;BME280_pressure;Samples;Min_cycle;Max_cycle;Signal;HPM_P1;HPM_P2
2022/01/14 00:02:08;;;;;;;13.07;6.22;;;-2.00;99.90;;;;;;5074242;28;19974;-48
2022/01/14 00:04:36;;;;;;;14.85;6.25;;;-2.00;99.90;;;;;;5074151;28;20086;-50
2022/01/14 00:07:03;;;;;;;14.45;7.15;;;-2.10;99.90;;;;;;5073652;28;20052;-50
2022/01/14 00:09:31;;;;;;;;;;;-2.10;99.90;;;;;;5074232;28;20124;-52
2022/01/14 00:12:00;;;;;;;13.65;6.03;;;-2.10;99.90;;;;;;5073799;28;19920;-52
2022/01/14 00:14:57;;;;;;;12.00;5.90;;;-2.10;99.90;;;;;;5073936;28;20048;-48
2022/01/14 00:17:24;;;;;;;16.58;7.00;;;-2.10;99.90;;;;;;5073539;28;20052;-52
2022/01/14 00:19:51;;;;;;;15.38;6.40;;;-2.20;99.90;;;;;;5073833;28;20048;-50
2022/01/14 00:22:18;;;;;;;17.23;6.28;;;-2.20;99.90;;;;;;5073963;28;20044;-49
2022/01/14 00:31:41;;;;;;;;;;;-2.20;99.90;;;;;;5074361;28;20044;-49
2022/01/14 00:33:10;;;;;;;10.93;4.80;;;-2.30;99.90;;;;;;5073745;28;20412;-50
2022/01/14 00:35:42;;;;;;;13.45;5.75;;;-2.20;99.90;;;;;;5073325;28;20040;-49
2022/01/14 00:38:11;;;;;;;13.30;5.80;;;-2.30;99.90;;;;;;5073459;28;20563;-49
2022/01/14 00:40:38;;;;;;;19.10;6.40;;;-2.30;99.90;;;;;;5073535;28;20054;-51
2022/01/14 00:43:05;;;;;;;;;;;-2.30;99.90;;;;;;5073847;28;20040;-48
2022/01/14 00:45:32;;;;;;;12.48;5.40;;;-2.30;99.90;;;;;;5072403;28;19927;-50
2022/01/14 00:48:01;;;;;;;13.45;5.50;;;-2.30;99.90;;;;;;5073202;28;20044;-52
2022/01/14 00:50:29;;;;;;;14.38;5.97;;;-2.20;99.90;;;;;;5073350;28;20044;-51
2022/01/14 00:52:56;;;;;;;12.48;5.32;;;-2.30;99.90;;;;;;5072990;28;20056;-53
2022/01/14 00:55:40;;;;;;;11.38;5.30;;;-2.20;99.90;;;;;;5072536;28;20036;-50
2022/01/14 01:00:53;;;;;;;12.80;4.85;;;-2.20;99.90;;;;;;5073260;28;20051;-51
2022/01/14 01:03:20;;;;;;;11.48;5.25;;;-2.10;99.90;;;;;;5073136;28;20044;-51
2022/01/14 01:05:47;;;;;;;12.63;5.35;;;-2.20;99.90;;;;;;5072632;28;20048;-48
2022/01/14 01:08:20;;;;;;;9.13;4.25;;;-2.10;99.90;;;;;;5073059;28;20093;-51
2022/01/14 01:10:49;;;;;;;14.68;5.10;;;-2.10;99.90;;;;;;5073069;28;20051;-50
2022/01/14 01:13:31;;;;;;;10.20;4.95;;;-2.10;99.90;;;;;;5072915;28;20451;-51
2022/01/14 01:15:58;;;;;;;7.38;4.47;;;-2.10;99.90;;;;;;5072538;28;20588;-49
2022/01/14 01:18:26;;;;;;;13.13;5.00;;;-2.10;99.90;;;;;;5072878;28;20052;-52
2022/01/14 01:20:53;;;;;;;;;;;-2.20;99.90;;;;;;5073125;28;20057;-49
2022/01/14 01:23:20;;;;;;;13.95;5.35;;;-2.20;99.90;;;;;;5072627;28;20291;-49
2022/01/14 01:26:11;;;;;;;14.23;4.90;;;-2.20;99.90;;;;;;5054447;28;20068;-48
2022/01/14 01:28:53;;;;;;;11.98;5.25;;;-2.20;99.90;;;;;;5072344;28;20550;-48
2022/01/14 01:31:35;;;;;;;12.93;5.05;;;-2.20;99.90;;;;;;5072586;28;20036;-50
2022/01/14 01:34:06;;;;;;;12.60;4.82;;;-2.20;99.90;;;;;;5072706;28;20048;-50
2022/01/14 01:36:33;;;;;;;12.65;5.93;;;-2.30;99.90;;;;;;5072190;28;20037;-52
2022/01/14 01:39:01;;;;;;;13.07;5.13;;;-2.30;99.90;;;;;;5071979;28;20104;-51
2022/01/14 01:41:28;;;;;;;15.23;5.68;;;-2.30;99.90;;;;;;5071607;28;20098;-50
2022/01/14 01:43:55;;;;;;;11.43;5.45;;;-2.30;99.90;;;;;;5072364;28;20400;-51
2022/01/14 01:46:23;;;;;;;15.70;5.88;;;-2.30;99.90;;;;;;5071982;28;20040;-48
2022/01/14 01:48:51;;;;;;;13.10;5.55;;;-2.30;99.90;;;;;;5072210;28;20094;-49
2022/01/14 01:51:20;;;;;;;12.55;5.70;;;-2.30;99.90;;;;;;5072268;28;20421;-50
2022/01/14 01:53:48;;;;;;;14.88;5.40;;;-2.30;99.90;;;;;;5071949;28;20058;-48
2022/01/14 01:56:15;;;;;;;14.82;5.07;;;-2.30;99.90;;;;;;5071825;28;20037;-52
2022/01/14 01:58:42;;;;;;;19.67;5.78;;;-2.30;99.90;;;;;;5072115;28;20072;-50
2022/01/14 02:01:09;;;;;;;13.75;5.65;;;-2.30;99.90;;;;;;5072094;28;20048;-48
2022/01/14 02:03:37;;;;;;;14.57;6.25;;;-2.30;99.90;;;;;;5072176;28;20551;-48
2022/01/14 02:06:05;;;;;;;11.95;6.00;;;-2.40;99.90;;;;;;5071471;28;20040;-48
2022/01/14 02:08:32;;;;;;;12.02;5.55;;;-2.40;99.90;;;;;;5071756;28;20052;-48
2022/01/14 02:10:59;;;;;;;14.40;6.78;;;-2.50;99.90;;;;;;5071962;28;20044;-50
2022/01/14 02:13:26;;;;;;;;;;;-2.60;99.90;;;;;;5054681;28;20043;-49
2022/01/14 02:18:41;;;;;;;10.95;5.45;;;-2.70;99.90;;;;;;5069658;28;20234;-49
2022/01/14 02:24:19;;;;;;;12.38;5.30;;;-2.70;99.90;;;;;;5071755;28;20401;-50
2022/01/14 02:26:50;;;;;;;10.73;4.72;;;-2.70;99.90;;;;;;5071285;28;20051;-48
2022/01/14 02:29:18;;;;;;;13.98;4.57;;;-2.70;99.90;;;;;;5071611;28;20050;-48
2022/01/14 02:31:45;;;;;;;12.27;5.20;;;-2.70;99.90;;;;;;5071647;28;20048;-49
2022/01/14 02:34:13;;;;;;;;;;;-2.60;99.90;;;;;;5071892;28;20041;-49
2022/01/14 02:36:42;;;;;;;7.35;3.33;;;-2.60;99.90;;;;;;5071268;28;19924;-48
2022/01/14 02:39:10;;;;;;;11.70;5.10;;;-2.60;99.90;;;;;;5071302;28;20044;-48
2022/01/14 02:41:39;;;;;;;12.55;5.45;;;-2.60;99.90;;;;;;5071328;28;20041;-49
2022/01/14 02:44:10;;;;;;;14.00;4.82;;;-2.70;99.90;;;;;;5071521;28;20052;-48
2022/01/14 02:46:48;;;;;;;10.80;5.22;;;-2.70;99.90;;;;;;5071151;28;20064;-49
2022/01/14 02:49:15;;;;;;;14.70;5.55;;;-2.60;99.90;;;;;;5071353;28;20585;-49
2022/01/14 02:51:42;;;;;;;10.43;5.55;;;-2.60;99.90;;;;;;5071320;28;20090;-48
2022/01/14 02:54:15;;;;;;;10.25;5.43;;;-2.60;99.90;;;;;;5071091;28;20051;-48
2022/01/14 02:56:45;;;;;;;11.55;5.07;;;-2.50;99.90;;;;;;5053160;28;20436;-48
2022/01/14 02:59:14;;;;;;;12.80;5.30;;;-2.50;99.90;;;;;;5071315;28;20420;-50
2022/01/14 03:01:42;;;;;;;9.30;5.22;;;-2.50;99.90;;;;;;5071373;28;20544;-48
2022/01/14 03:04:10;;;;;;;12.73;5.05;;;-2.50;99.90;;;;;;5071148;28;20048;-49
2022/01/14 03:06:37;;;;;;;9.05;4.65;;;-2.50;99.90;;;;;;5070642;28;20075;-48
2022/01/14 03:09:04;;;;;;;9.73;4.63;;;-2.50;99.90;;;;;;5071180;28;20447;-48
2022/01/14 03:11:45;;;;;;;11.98;4.57;;;-2.50;99.90;;;;;;5071213;28;20048;-48
2022/01/14 03:14:14;;;;;;;11.18;4.82;;;-2.50;99.90;;;;;;5071014;28;20043;-50
2022/01/14 03:16:42;;;;;;;11.85;4.72;;;-2.50;99.90;;;;;;5052457;28;20443;-47
2022/01/14 03:19:17;;;;;;;14.45;5.07;;;-2.50;99.90;;;;;;5070793;28;20044;-50
2022/01/14 03:21:44;;;;;;;12.93;4.80;;;-2.50;99.90;;;;;;5071198;28;20048;-49
2022/01/14 03:24:22;;;;;;;8.88;4.65;;;-2.50;99.90;;;;;;5071112;28;20496;-48
2022/01/14 03:26:51;;;;;;;10.20;4.97;;;-2.50;99.90;;;;;;5070667;28;20165;-48
2022/01/14 03:29:19;;;;;;;11.57;4.80;;;-2.50;99.90;;;;;;5070946;28;20043;-48
2022/01/14 03:31:47;;;;;;;15.70;4.40;;;-2.50;99.90;;;;;;5071024;28;20091;-48
2022/01/14 03:34:14;;;;;;;9.15;4.72;;;-2.50;99.90;;;;;;5071057;28;20068;-48
2022/01/14 03:36:41;;;;;;;10.38;4.35;;;-2.50;99.90;;;;;;5070516;28;20554;-49
2022/01/14 03:39:14;;;;;;;8.63;4.40;;;-2.50;99.90;;;;;;5070720;28;20090;-48
2022/01/14 03:41:41;;;;;;;9.57;4.30;;;-2.50;99.90;;;;;;5071294;28;20094;-48
2022/01/14 03:44:08;;;;;;;17.77;6.25;;;-2.50;99.90;;;;;;5070868;28;20044;-48
2022/01/14 03:46:35;;;;;;;10.52;5.20;;;-2.50;99.90;;;;;;5070541;28;20059;-49
2022/01/14 03:49:02;;;;;;;10.50;4.55;;;-2.50;99.90;;;;;;5070771;28;20036;-49
2022/01/14 03:51:29;;;;;;;14.70;4.97;;;-2.50;99.90;;;;;;5070631;28;20515;-50
2022/01/14 03:53:57;;;;;;;7.57;3.00;;;-2.40;99.90;;;;;;5071001;28;20087;-50
2022/01/14 03:56:25;;;;;;;8.70;4.40;;;-2.40;99.90;;;;;;5070449;28;20045;-49
2022/01/14 03:58:53;;;;;;;8.45;3.75;;;-2.40;99.90;;;;;;5070687;28;20040;-49
2022/01/14 04:01:20;;;;;;;9.98;3.80;;;-2.40;99.90;;;;;;5070717;28;20505;-49
2022/01/14 04:03:48;;;;;;;;;;;-2.40;99.90;;;;;;5071078;28;20056;-48
2022/01/14 04:06:16;;;;;;;11.02;4.20;;;-2.40;99.90;;;;;;5073654;28;19974;-50
2022/01/14 04:08:44;;;;;;;10.18;4.35;;;-2.40;99.90;;;;;;5074216;28;20036;-48
2022/01/14 04:11:12;;;;;;;13.13;3.95;;;-2.50;99.90;;;;;;5072484;28;20066;-48
2022/01/14 04:13:53;;;;;;;9.50;4.57;;;-2.40;99.90;;;;;;5071677;28;20048;-49
2022/01/14 04:16:24;;;;;;;11.38;4.47;;;-2.50;99.90;;;;;;5073573;28;20044;-48
2022/01/14 04:18:52;;;;;;;8.30;3.65;;;-2.50;99.90;;;;;;5073935;28;20036;-49
2022/01/14 04:21:19;;;;;;;9.13;3.85;;;-2.60;99.90;;;;;;5074009;28;20053;-49
2022/01/14 04:23:46;;;;;;;9.93;4.32;;;-2.70;99.90;;;;;;5073880;28;20048;-48
2022/01/14 04:26:13;;;;;;;11.43;3.85;;;-2.80;99.90;;;;;;5073778;28;20041;-49
2022/01/14 04:28:40;;;;;;;8.82;3.22;;;-2.90;99.90;;;;;;5073925;28;20048;-48
2022/01/14 04:31:09;;;;;;;9.35;3.28;;;-3.00;99.90;;;;;;5073525;28;20051;-48
2022/01/14 04:33:37;;;;;;;11.05;3.78;;;-3.10;99.90;;;;;;5073103;28;20037;-49
2022/01/14 04:36:05;;;;;;;7.00;3.97;;;-3.10;99.90;;;;;;5073078;28;20043;-49
2022/01/14 04:38:32;;;;;;;9.27;3.85;;;-3.10;99.90;;;;;;5088422;22;20055;-53
2022/01/14 04:40:59;;;;;;;8.38;3.78;;;-3.20;99.90;;;;;;5072895;28;20428;-54
2022/01/14 04:43:26;;;;;;;;;;;-3.20;99.90;;;;;;5073680;28;20111;-56
2022/01/14 04:46:14;;;;;;;9.82;3.95;;;-3.20;99.90;;;;;;5072185;28;20119;-56
2022/01/14 04:48:41;;;;;;;6.00;2.63;;;-3.20;99.90;;;;;;5067801;28;20392;-53
2022/01/14 04:51:10;;;;;;;7.00;2.97;;;-3.20;99.90;;;;;;5085380;28;20323;-56
2022/01/14 04:53:37;;;;;;;8.07;3.30;;;-3.20;99.90;;;;;;5093693;28;20040;-57
2022/01/14 04:56:04;;;;;;;6.93;3.28;;;-3.20;99.90;;;;;;5093053;28;20079;-56
2022/01/14 04:58:31;;;;;;;7.22;3.08;;;-3.20;99.90;;;;;;5093571;28;20043;-54
2022/01/14 05:00:58;;;;;;;7.00;3.53;;;-3.20;99.90;;;;;;5090304;28;20841;-54
2022/01/14 05:03:25;;;;;;;7.18;3.95;;;-3.30;99.90;;;;;;5073209;28;20062;-55
2022/01/14 05:05:56;;;;;;;;;;;-3.20;99.90;;;;;;5073163;28;20227;-53
2022/01/14 05:08:35;;;;;;;14.05;5.20;;;-3.20;99.90;;;;;;5073088;28;19920;-56
2022/01/14 05:13:45;;;;;;;12.10;5.45;;;-3.20;99.90;;;;;;5084808;28;20094;-53
2022/01/14 05:16:12;;;;;;;9.10;5.07;;;-3.20;99.90;;;;;;5077976;28;20044;-54
2022/01/14 05:18:39;;;;;;;17.90;5.55;;;-3.20;99.90;;;;;;5093168;28;20051;-52
2022/01/14 05:21:05;;;;;;;10.30;5.28;;;-3.10;99.90;;;;;;5092356;28;20089;-55
2022/01/14 05:23:33;;;;;;;10.38;4.80;;;-3.10;99.90;;;;;;5075064;28;20037;-54
2022/01/14 05:26:00;;;;;;;9.73;5.32;;;-3.00;99.90;;;;;;5074894;28;20040;-55
2022/01/14 05:28:26;;;;;;;10.40;4.70;;;-2.90;99.90;;;;;;5072409;28;20102;-56
2022/01/14 05:30:53;;;;;;;11.40;5.00;;;-2.90;99.90;;;;;;5072605;28;20036;-55
2022/01/14 05:33:20;;;;;;;8.88;4.20;;;-2.80;99.90;;;;;;5082110;28;20156;-56
2022/01/14 05:35:47;;;;;;;15.57;6.07;;;-2.80;99.90;;;;;;5091919;28;20097;-54
2022/01/14 05:38:14;;;;;;;20.98;7.13;;;-2.80;99.90;;;;;;5074487;28;20094;-56
2022/01/14 05:40:40;;;;;;;19.67;7.10;;;-2.80;99.90;;;;;;5072020;28;20140;-55
2022/01/14 05:43:07;;;;;;;15.57;7.75;;;-2.80;99.90;;;;;;5072415;28;20045;-55
2022/01/14 05:45:34;;;;;;;15.77;6.28;;;-2.80;99.90;;;;;;5071875;28;20139;-54
2022/01/14 05:48:01;;;;;;;17.00;7.53;;;-2.80;99.90;;;;;;5072101;28;20045;-53
2022/01/14 05:50:28;;;;;;;21.48;8.48;;;-2.80;99.90;;;;;;5072111;28;20062;-55
2022/01/14 05:52:55;;;;;;;15.20;7.35;;;-2.90;99.90;;;;;;5071914;28;20064;-53
2022/01/14 05:55:22;;;;;;;13.98;7.68;;;-2.90;99.90;;;;;;5071756;28;20455;-53
2022/01/14 05:57:49;;;;;;;10.30;6.35;;;-2.90;99.90;;;;;;5074682;28;20500;-54
2022/01/14 06:00:18;;;;;;;;;;;-2.90;99.90;;;;;;5072560;28;20033;-55
2022/01/14 06:02:46;;;;;;;9.85;4.00;;;-2.90;99.90;;;;;;5088444;28;19920;-55
2022/01/14 06:05:14;;;;;;;9.15;4.00;;;-3.00;99.90;;;;;;5091320;28;20047;-54
2022/01/14 06:07:41;;;;;;;;;;;-3.10;99.90;;;;;;5091946;28;20045;-57
2022/01/14 06:10:08;;;;;;;7.80;3.30;;;-3.30;99.90;;;;;;5091721;28;19927;-54
2022/01/14 06:12:35;;;;;;;7.97;2.97;;;-3.30;99.90;;;;;;5091980;28;20040;-52
2022/01/14 06:15:04;;;;;;;7.35;3.53;;;-3.40;99.90;;;;;;5091850;28;20058;-55
2022/01/14 06:17:39;;;;;;;7.38;3.60;;;-3.40;99.90;;;;;;5091832;28;20055;-55
2022/01/14 06:20:07;;;;;;;10.07;4.07;;;-3.50;99.90;;;;;;5091634;28;20043;-53
2022/01/14 06:22:35;;;;;;;;;;;-3.50;99.90;;;;;;5091840;28;20044;-53
2022/01/14 06:25:03;;;;;;;10.65;4.60;;;-3.50;99.90;;;;;;5091849;28;19924;-53
2022/01/14 06:27:32;;;;;;;10.32;5.85;;;-3.50;99.90;;;;;;5091060;28;20131;-55
2022/01/14 06:30:01;;;;;;;13.23;5.82;;;-3.50;99.90;;;;;;5084488;28;20059;-52
2022/01/14 06:32:27;;;;;;;11.30;5.25;;;-3.60;99.90;;;;;;5082574;28;20093;-57
2022/01/14 06:34:54;;;;;;;9.65;5.30;;;-3.60;99.90;;;;;;5082442;28;20500;-51
2022/01/14 06:37:21;;;;;;;8.15;5.05;;;-3.70;99.90;;;;;;5083193;28;20113;-54
2022/01/14 06:39:48;;;;;;;10.18;4.72;;;-3.70;99.90;;;;;;5091608;28;20519;-55
2022/01/14 06:42:15;;;;;;;12.65;5.25;;;-3.70;99.90;;;;;;5085669;28;20052;-52
2022/01/14 06:44:42;;;;;;;8.85;4.45;;;-3.70;99.90;;;;;;5088730;28;20109;-53
2022/01/14 06:47:09;;;;;;;12.27;4.80;;;-3.70;99.90;;;;;;5079255;28;20070;-51
2022/01/14 06:49:35;;;;;;;8.75;3.90;;;-3.80;99.90;;;;;;5069766;28;20048;-51
2022/01/14 06:52:03;;;;;;;;;;;-3.70;99.90;;;;;;5070882;28;20131;-53
2022/01/14 06:54:30;;;;;;;10.68;4.63;;;-3.80;99.90;;;;;;5070422;28;19921;-53
2022/01/14 06:56:57;;;;;;;15.05;5.13;;;-3.70;99.90;;;;;;5070991;28;20477;-52
2022/01/14 06:59:23;;;;;;;6.35;2.75;;;-3.70;99.90;;;;;;5071003;28;20056;-52
2022/01/14 07:01:50;;;;;;;8.25;2.88;;;-3.80;99.90;;;;;;5070908;28;20048;-56
2022/01/14 07:04:18;;;;;;;6.68;2.50;;;-3.80;99.90;;;;;;5071187;28;20072;-52
2022/01/14 07:06:45;;;;;;;8.07;2.95;;;-3.90;99.90;;;;;;5070921;28;20040;-53
2022/01/14 07:09:12;;;;;;;7.65;2.40;;;-4.00;99.90;;;;;;5071084;28;20041;-52
2022/01/14 07:11:39;;;;;;;7.10;2.75;;;-4.10;99.90;;;;;;5071304;28;20041;-52
2022/01/14 07:14:06;;;;;;;9.13;2.78;;;-4.10;99.90;;;;;;5071078;28;20037;-53
2022/01/14 07:16:34;;;;;;;6.15;2.33;;;-4.10;99.90;;;;;;5070543;28;20090;-52
2022/01/14 07:19:03;;;;;;;6.18;2.83;;;-4.10;99.90;;;;;;5070979;28;20095;-53
2022/01/14 07:21:34;;;;;;;7.00;3.25;;;-4.20;99.90;;;;;;5071185;28;20358;-54
2022/01/14 07:24:02;;;;;;;13.55;5.82;;;-4.30;99.90;;;;;;5070965;28;20447;-52
2022/01/14 07:26:29;;;;;;;12.00;4.55;;;-4.20;99.90;;;;;;5070694;28;20086;-54
2022/01/14 07:28:56;;;;;;;8.05;3.60;;;-4.10;99.90;;;;;;5070706;28;20049;-51
2022/01/14 07:31:22;;;;;;;8.80;3.47;;;-4.10;99.90;;;;;;5070892;28;20448;-55
2022/01/14 07:33:49;;;;;;;9.27;3.95;;;-4.00;99.90;;;;;;5070923;28;20045;-53
2022/01/14 07:36:16;;;;;;;10.35;4.72;;;-3.90;99.90;;;;;;5070684;28;20485;-51
2022/01/14 07:38:43;;;;;;;15.05;5.35;;;-3.90;99.90;;;;;;5070637;28;20124;-53
2022/01/14 07:41:10;;;;;;;14.90;5.30;;;-3.70;99.90;;;;;;5074248;28;20393;-52
2022/01/14 07:43:37;;;;;;;14.20;5.57;;;-3.70;99.90;;;;;;5074639;28;20048;-52
2022/01/14 07:46:05;;;;;;;14.75;5.30;;;-3.60;99.90;;;;;;5074071;28;20119;-54
2022/01/14 07:48:32;;;;;;;9.18;4.65;;;-3.60;99.90;;;;;;5074478;28;20041;-54
2022/01/14 07:50:59;;;;;;;11.18;5.10;;;-3.60;99.90;;;;;;5074512;28;20381;-53
2022/01/14 07:53:26;;;;;;;11.95;5.05;;;-3.50;99.90;;;;;;5074348;28;20408;-51
2022/01/14 07:55:53;;;;;;;9.25;4.40;;;-3.40;99.90;;;;;;5074068;28;20450;-53
2022/01/14 07:58:20;;;;;;;11.13;4.90;;;-3.40;99.90;;;;;;5074271;28;20044;-52
2022/01/14 08:00:51;;;;;;;14.82;5.38;;;-3.40;99.90;;;;;;5074332;28;20052;-52
2022/01/14 08:03:18;;;;;;;12.90;5.45;;;-3.30;99.90;;;;;;5074605;28;20448;-53
2022/01/14 08:05:46;;;;;;;12.27;4.85;;;-3.30;99.90;;;;;;5073823;28;20060;-54
2022/01/14 08:08:13;;;;;;;12.63;6.10;;;-3.30;99.90;;;;;;5074232;28;20416;-53
2022/01/14 08:10:40;;;;;;;17.13;8.02;;;-3.30;99.90;;;;;;5073970;28;20119;-53
2022/01/14 08:13:07;;;;;;;16.60;7.05;;;-3.30;99.90;;;;;;5073934;28;20058;-53
2022/01/14 08:15:34;;;;;;;21.20;9.18;;;-3.20;99.90;;;;;;5073660;28;20047;-53
2022/01/14 08:18:01;;;;;;;94.15;25.92;;;-3.20;99.90;;;;;;5074117;28;20041;-53
2022/01/14 08:20:29;;;;;;;50.83;18.63;;;-3.20;99.90;;;;;;5074034;28;20040;-56
2022/01/14 08:22:55;;;;;;;46.90;17.10;;;-3.10;99.90;;;;;;5073989;28;20047;-55
2022/01/14 08:25:22;;;;;;;56.78;24.45;;;-3.20;99.90;;;;;;5073190;28;20049;-53
2022/01/14 08:27:49;;;;;;;53.30;22.08;;;-3.10;99.90;;;;;;5073891;28;20040;-54
2022/01/14 08:30:16;;;;;;;33.47;15.93;;;-3.10;99.90;;;;;;5073683;28;20037;-53
2022/01/14 08:32:43;;;;;;;29.08;12.63;;;-3.10;99.90;;;;;;5073815;28;20123;-55
2022/01/14 08:35:10;;;;;;;31.73;12.50;;;-3.10;99.90;;;;;;5073452;28;20078;-54
2022/01/14 08:37:38;;;;;;;33.90;16.02;;;-3.20;99.90;;;;;;5073575;28;20044;-52
2022/01/14 08:40:08;;;;;;;59.72;26.33;;;-3.20;99.90;;;;;;5073244;28;20566;-54
2022/01/14 08:42:35;;;;;;;66.68;29.30;;;-3.30;99.90;;;;;;5073522;28;20135;-53
2022/01/14 08:45:04;;;;;;;56.70;25.23;;;-3.20;99.90;;;;;;5073528;28;20101;-54
2022/01/14 08:47:31;;;;;;;31.30;13.45;;;-3.10;99.90;;;;;;5073335;28;20040;-52
2022/01/14 08:49:58;;;;;;;20.88;9.15;;;-3.00;99.90;;;;;;5073334;28;20047;-52
2022/01/14 08:52:25;;;;;;;20.27;7.45;;;-2.80;99.90;;;;;;5073210;28;20091;-52
2022/01/14 08:54:52;;;;;;;14.35;6.25;;;-2.80;99.90;;;;;;5073400;28;20079;-54
2022/01/14 08:57:23;;;;;;;17.40;7.20;;;-2.80;99.90;;;;;;5073026;28;20115;-52
2022/01/14 08:59:50;;;;;;;21.13;6.50;;;-2.70;99.90;;;;;;5073083;28;20044;-53
2022/01/14 09:02:17;;;;;;;17.10;8.30;;;-2.60;99.90;;;;;;5073165;28;20066;-56
2022/01/14 09:04:44;;;;;;;20.38;8.52;;;-2.60;99.90;;;;;;5073570;28;20127;-53
2022/01/14 09:07:11;;;;;;;18.95;8.68;;;-2.40;99.90;;;;;;5072701;28;20056;-52
2022/01/14 09:09:38;;;;;;;18.23;8.32;;;-2.20;99.90;;;;;;5073221;28;20037;-56
2022/01/14 09:12:07;;;;;;;21.30;8.65;;;-2.10;99.90;;;;;;5073063;28;20087;-52
2022/01/14 09:14:33;;;;;;;16.05;8.20;;;-2.00;99.90;;;;;;5072873;28;20048;-55
2022/01/14 09:17:02;;;;;;;23.83;10.68;;;-2.00;99.90;;;;;;5072620;28;20041;-54
2022/01/14 09:19:29;;;;;;;36.10;12.40;;;-1.80;99.90;;;;;;5072639;28;20041;-56
2022/01/14 09:21:56;;;;;;;30.20;12.70;;;-1.60;99.90;;;;;;5072665;28;20555;-56
2022/01/14 09:24:43;;;;;;;22.83;9.07;;;-1.40;99.90;;;;;;5072786;28;20045;-53
2022/01/14 09:27:12;;;;;;;16.33;8.45;;;-1.20;99.90;;;;;;5072473;28;20040;-56
2022/01/14 09:29:39;;;;;;;22.48;9.50;;;-1.20;99.90;;;;;;5072483;28;20044;-52
2022/01/14 09:32:07;;;;;;;18.13;8.52;;;-1.10;99.90;;;;;;5072471;28;20044;-51
2022/01/14 09:34:34;;;;;;;18.35;9.82;;;-1.00;99.90;;;;;;5072522;28;20132;-56
2022/01/14 09:37:01;;;;;;;;;;;-0.90;99.90;;;;;;5072599;28;20602;-54
2022/01/14 09:39:31;;;;;;;18.25;9.00;;;-0.80;99.90;;;;;;5072201;28;19931;-56
2022/01/14 09:41:59;;;;;;;23.85;11.00;;;-0.70;99.90;;;;;;5072400;28;20045;-55
2022/01/14 09:44:26;;;;;;;15.40;9.27;;;-0.70;99.90;;;;;;5072007;28;20440;-53
2022/01/14 09:46:53;;;;;;;20.42;8.73;;;-0.60;99.90;;;;;;5071904;28;20663;-52
2022/01/14 09:49:20;;;;;;;17.67;9.40;;;-0.60;99.90;;;;;;5072229;28;20079;-53
2022/01/14 09:51:47;;;;;;;19.85;8.88;;;-0.60;99.90;;;;;;5072248;28;20469;-52
2022/01/14 09:54:14;;;;;;;16.33;7.90;;;-0.50;99.90;;;;;;5072191;28;20079;-55
2022/01/14 09:56:45;;;;;;;13.15;6.97;;;-0.50;99.90;;;;;;5071577;28;20041;-53
2022/01/14 09:59:12;;;;;;;16.10;6.93;;;-0.40;99.90;;;;;;5071891;28;20412;-52
2022/01/14 10:01:44;;;;;;;14.05;6.70;;;-0.30;99.90;;;;;;5071728;28;20062;-53
2022/01/14 10:04:19;;;;;;;13.20;7.15;;;-0.20;99.90;;;;;;5071681;28;20041;-53
2022/01/14 10:06:51;;;;;;;15.88;7.43;;;-0.20;99.90;;;;;;5071522;28;20068;-52
2022/01/14 10:09:23;;;;;;;13.93;8.13;;;-0.10;99.90;;;;;;5072518;28;20040;-52
2022/01/14 10:12:01;;;;;;;18.23;8.70;;;0.00;99.90;;;;;;5071865;28;20470;-54
2022/01/14 10:14:28;;;;;;;20.63;7.63;;;0.00;99.90;;;;;;5071819;28;20036;-55
2022/01/14 10:16:57;;;;;;;17.08;7.80;;;0.00;99.90;;;;;;5071326;28;20519;-54
2022/01/14 10:19:30;;;;;;;16.30;7.50;;;0.10;99.90;;;;;;5071520;28;20071;-53
2022/01/14 10:21:57;;;;;;;12.93;7.40;;;0.10;99.90;;;;;;5071593;28;20492;-54
2022/01/14 10:24:27;;;;;;;19.33;6.95;;;0.10;99.90;;;;;;5071820;28;20093;-55
2022/01/14 10:26:57;;;;;;;14.65;6.78;;;0.20;99.90;;;;;;5071543;28;20094;-52
2022/01/14 10:29:38;;;;;;;12.20;5.97;;;0.20;99.90;;;;;;5071366;28;20044;-56
2022/01/14 10:32:08;;;;;;;13.90;5.97;;;0.30;99.90;;;;;;5071615;28;20044;-55
2022/01/14 10:34:36;;;;;;;12.00;5.40;;;0.40;99.90;;;;;;5071488;28;20044;-52
2022/01/14 10:37:14;;;;;;;16.23;6.72;;;0.40;99.90;;;;;;5070984;28;20489;-53
2022/01/14 10:39:53;;;;;;;11.32;5.53;;;0.50;99.90;;;;;;5094931;22;20039;-51
2022/01/14 10:42:33;;;;;;;10.73;5.25;;;0.70;99.90;;;;;;5091197;28;20123;-52
2022/01/14 10:45:22;;;;;;;9.80;5.45;;;0.80;99.90;;;;;;5089224;28;20497;-48
2022/01/14 10:48:02;;;;;;;8.93;5.10;;;0.90;99.90;;;;;;5080576;28;20044;-52
2022/01/14 10:50:40;;;;;;;12.02;5.53;;;1.00;99.90;;;;;;5071268;28;20060;-55
2022/01/14 10:53:15;;;;;;;9.20;4.60;;;1.10;99.90;;;;;;5071361;28;20576;-51
2022/01/14 10:55:45;;;;;;;12.90;5.07;;;1.20;99.90;;;;;;5070907;28;20082;-51
2022/01/14 10:58:24;;;;;;;16.00;4.65;;;1.30;99.90;;;;;;5071126;28;20093;-50
2022/01/14 11:01:03;;;;;;;12.35;5.35;;;1.40;99.90;;;;;;5071341;28;20489;-50
2022/01/14 11:03:38;;;;;;;11.10;4.75;;;1.60;99.90;;;;;;5071207;28;20089;-49
2022/01/14 11:06:30;;;;;;;11.70;4.90;;;1.70;99.90;;;;;;5070851;28;20040;-54
2022/01/14 11:09:00;;;;;;;11.75;5.15;;;1.80;99.90;;;;;;5071021;28;20048;-50
2022/01/14 11:11:29;;;;;;;13.30;6.05;;;1.90;99.90;;;;;;5071139;28;20059;-49
2022/01/14 11:13:56;;;;;;;11.43;4.65;;;2.00;99.90;;;;;;5072738;28;20072;-49
2022/01/14 11:16:24;;;;;;;9.00;4.72;;;2.00;99.90;;;;;;5074663;28;20578;-50
2022/01/14 11:18:53;;;;;;;9.32;5.00;;;2.00;99.90;;;;;;5075178;28;20036;-49
2022/01/14 11:24:06;;;;;;;7.93;4.43;;;2.10;99.90;;;;;;5074905;28;20056;-50
2022/01/14 11:26:35;;;;;;;9.40;3.97;;;2.20;99.90;;;;;;5074520;28;20045;-49
2022/01/14 11:29:09;;;;;;;7.65;4.25;;;2.30;99.90;;;;;;5074885;28;20485;-50
2022/01/14 11:31:39;;;;;;;7.32;3.65;;;2.40;99.90;;;;;;5074968;28;20052;-50
2022/01/14 11:34:45;;;;;;;9.02;3.83;;;2.50;99.90;;;;;;5074650;28;20079;-49
2022/01/14 11:37:31;;;;;;;10.30;4.60;;;2.60;99.90;;;;;;5043697;28;20048;-50
2022/01/14 11:40:02;;;;;;;9.10;4.22;;;2.70;99.90;;;;;;5074567;28;20048;-51
2022/01/14 11:42:41;;;;;;;8.38;3.97;;;2.70;99.90;;;;;;5074583;28;20512;-50
2022/01/14 11:45:09;;;;;;;8.13;3.63;;;2.70;99.90;;;;;;5074394;28;20412;-50
2022/01/14 11:47:39;;;;;;;11.90;4.75;;;2.70;99.90;;;;;;5074468;28;20064;-49
2022/01/14 11:50:32;;;;;;;7.88;3.85;;;2.80;99.90;;;;;;5074258;28;20404;-51
2022/01/14 11:53:04;;;;;;;9.27;4.35;;;2.80;99.90;;;;;;5074392;28;20116;-49
2022/01/14 11:55:31;;;;;;;12.40;4.47;;;2.70;99.90;;;;;;5074076;28;20110;-52
2022/01/14 11:58:02;;;;;;;6.20;3.63;;;2.80;99.90;;;;;;5074596;28;20647;-52
2022/01/14 12:00:47;;;;;;;8.38;4.57;;;2.80;99.90;;;;;;5074290;28;20102;-50
2022/01/14 12:03:25;;;;;;;5.60;3.33;;;2.90;99.90;;;;;;5074360;28;20044;-51
2022/01/14 12:05:54;;;;;;;11.50;4.22;;;2.90;99.90;;;;;;5073779;28;20044;-50
2022/01/14 12:08:34;;;;;;;7.97;3.97;;;3.00;99.90;;;;;;5074154;28;20106;-53
2022/01/14 12:11:07;;;;;;;9.18;3.63;;;3.00;99.90;;;;;;5074277;28;20076;-49
2022/01/14 12:13:53;;;;;;;6.40;3.97;;;3.10;99.90;;;;;;5073913;28;20040;-49
2022/01/14 12:18:59;;;;;;;15.15;4.22;;;3.20;99.90;;;;;;5074004;28;20079;-50
2022/01/14 12:21:40;;;;;;;10.85;4.78;;;3.20;99.90;;;;;;5074053;28;20045;-50
2022/01/14 12:24:19;;;;;;;7.35;3.70;;;3.30;99.90;;;;;;5074180;28;20386;-50
2022/01/14 12:26:52;;;;;;;7.80;3.85;;;3.30;99.90;;;;;;5072433;28;20057;-50
2022/01/14 12:29:29;;;;;;;8.50;4.03;;;3.40;99.90;;;;;;5073827;28;20048;-49
2022/01/14 12:32:07;;;;;;;6.97;3.90;;;3.40;99.90;;;;;;5073751;28;20045;-50
2022/01/14 12:34:56;;;;;;;10.10;4.20;;;3.50;99.90;;;;;;5073756;28;20051;-49
2022/01/14 12:37:33;;;;;;;5.05;3.22;;;3.60;99.90;;;;;;5073085;28;20678;-51
2022/01/14 12:40:09;;;;;;;7.10;3.38;;;3.50;99.90;;;;;;5073530;28;20040;-49
2022/01/14 12:42:37;;;;;;;11.13;3.60;;;3.60;99.90;;;;;;5073626;28;20056;-48
2022/01/14 12:45:07;;;;;;;8.75;3.15;;;3.70;99.90;;;;;;5073217;28;20045;-49
2022/01/14 12:47:39;;;;;;;5.88;3.50;;;3.80;99.90;;;;;;5073315;28;20599;-52
2022/01/14 12:50:10;;;;;;;6.43;3.63;;;3.80;99.90;;;;;;5073414;28;20056;-52
2022/01/14 12:52:48;;;;;;;8.18;3.42;;;3.80;99.90;;;;;;5073267;28;20048;-53
2022/01/14 12:55:17;;;;;;;8.10;3.90;;;3.90;99.90;;;;;;5072990;28;20566;-51
2022/01/14 12:57:44;;;;;;;8.07;3.65;;;3.90;99.90;;;;;;5073177;28;20051;-50
2022/01/14 13:00:13;;;;;;;8.43;3.70;;;4.00;99.90;;;;;;5073138;28;20548;-51
2022/01/14 13:02:41;;;;;;;6.53;3.67;;;4.00;99.90;;;;;;5073441;28;20398;-50
2022/01/14 13:05:15;;;;;;;9.40;3.13;;;4.00;99.90;;;;;;5073135;28;20451;-50
2022/01/14 13:07:44;;;;;;;8.07;3.53;;;4.00;99.90;;;;;;5072892;28;20070;-51
2022/01/14 13:10:13;;;;;;;9.07;3.70;;;4.10;99.90;;;;;;5073002;28;20468;-49
2022/01/14 13:12:42;;;;;;;10.38;3.63;;;4.20;99.90;;;;;;5072799;28;20462;-50
2022/01/14 13:15:18;;;;;;;7.75;3.83;;;4.20;99.90;;;;;;5073002;28;20374;-52
2022/01/14 13:17:57;;;;;;;10.77;4.32;;;4.30;99.90;;;;;;5072953;28;20082;-49
2022/01/14 13:20:26;;;;;;;6.90;3.80;;;4.30;99.90;;;;;;5071343;28;20409;-50
2022/01/14 13:22:53;;;;;;;9.68;4.40;;;4.30;99.90;;;;;;5073029;28;20455;-49